sensor_id;sensor_type;location;lat;lon;timestamp;temperature;humidity
28725;DHT22;43472;48.980;9.646;2023-12-20T00:00:48;7.40;99.90
28725;DHT22;43472;48.980;9.646;2023-12-20T00:05:50;7.70;99.90
28725;DHT22;43472;48.980;9.646;2023-12-20T00:10:52;7.50;99.90
28725;DHT22;43472;48.980;9.646;2023-12-20T00:15:53;7.40;99.90
28725;DHT22;43472;48.980;9.646;2023-12-20T00:20:55;7.90;99.90
28725;DHT22;43472;48.980;9.646;2023-12-20T00:25:57;7.50;99.90
28725;DHT22;43472;48.980;9.646;2023-12-20T00:30:59;7.50;99.90
28725;DHT22;43472;48.980;9.646;2023-12-20T00:36:01;7.50;99.90
28725;DHT22;43472;48.980;9.646;2023-12-20T00:41:03;7.20;99.90
28725;DHT22;43472;48.980;9.646;2023-12-20T00:46:05;7.10;99.90
28725;DHT22;43472;48.980;9.646;2023-12-20T00:51:07;6.90;99.90
28725;DHT22;43472;48.980;9.646;2023-12-20T00:56:10;6.80;99.90
28725;DHT22;43472;48.980;9.646;2023-12-20T01:01:11;6.90;99.90
28725;DHT22;43472;48.980;9.646;2023-12-20T01:06:14;6.90;99.90
28725;DHT22;43472;48.980;9.646;2023-12-20T01:11:17;7.50;99.90
28725;DHT22;43472;48.980;9.646;2023-12-20T01:16:19;6.70;99.90
28725;DHT22;43472;48.980;9.646;2023-12-20T01:21:21;6.70;99.90
28725;DHT22;43472;48.980;9.646;2023-12-20T01:26:23;6.70;99.90
28725;DHT22;43472;48.980;9.646;2023-12-20T01:31:24;6.70;99.90
28725;DHT22;43472;48.980;9.646;2023-12-20T01:36:28;8.00;99.90
28725;DHT22;43472;48.980;9.646;2023-12-20T01:41:30;6.70;99.90
28725;DHT22;43472;48.980;9.646;2023-12-20T01:46:32;6.60;99.90
28725;DHT22;43472;48.980;9.646;2023-12-20T01:51:35;6.60;99.90
28725;DHT22;43472;48.980;9.646;2023-12-20T01:56:37;6.60;99.90
28725;DHT22;43472;48.980;9.646;2023-12-20T02:01:40;6.50;99.90
28725;DHT22;43472;48.980;9.646;2023-12-20T02:06:42;6.70;99.90
28725;DHT22;43472;48.980;9.646;2023-12-20T02:11:45;6.70;99.90
28725;DHT22;43472;48.980;9.646;2023-12-20T02:16:47;6.70;99.90
28725;DHT22;43472;48.980;9.646;2023-12-20T02:21:49;6.70;99.90
28725;DHT22;43472;48.980;9.646;2023-12-20T02:26:51;6.70;99.90
28725;DHT22;43472;48.980;9.646;2023-12-20T02:31:52;7.80;99.90
28725;DHT22;43472;48.980;9.646;2023-12-20T02:36:54;7.00;99.90
28725;DHT22;43472;48.980;9.646;2023-12-20T02:41:56;6.90;99.90
28725;DHT22;43472;48.980;9.646;2023-12-20T02:46:58;7.20;99.90
28725;DHT22;43472;48.980;9.646;2023-12-20T02:52:00;7.10;99.90
28725;DHT22;43472;48.980;9.646;2023-12-20T02:57:02;6.90;99.90
28725;DHT22;43472;48.980;9.646;2023-12-20T03:02:03;6.90;99.90
28725;DHT22;43472;48.980;9.646;2023-12-20T03:07:06;7.00;99.90
28725;DHT22;43472;48.980;9.646;2023-12-20T03:12:08;7.00;99.90
28725;DHT22;43472;48.980;9.646;2023-12-20T03:17:10;7.10;99.90
28725;DHT22;43472;48.980;9.646;2023-12-20T03:22:11;6.90;99.90
28725;DHT22;43472;48.980;9.646;2023-12-20T03:27:13;6.80;99.90
28725;DHT22;43472;48.980;9.646;2023-12-20T03:32:15;6.60;99.90
28725;DHT22;43472;48.980;9.646;2023-12-20T03:37:17;6.70;99.90
28725;DHT22;43472;48.980;9.646;2023-12-20T03:42:19;6.80;99.90
28725;DHT22;43472;48.980;9.646;2023-12-20T03:47:20;6.90;99.90
28725;DHT22;43472;48.980;9.646;2023-12-20T03:52:22;6.60;99.90
28725;DHT22;43472;48.980;9.646;2023-12-20T03:57:24;6.60;99.90
28725;DHT22;43472;48.980;9.646;2023-12-20T04:02:26;6.30;99.90
28725;DHT22;43472;48.980;9.646;2023-12-20T04:07:27;6.30;99.90
28725;DHT22;43472;48.980;9.646;2023-12-20T04:12:30;6.70;99.90
28725;DHT22;43472;48.980;9.646;2023-12-20T04:17:32;6.70;99.90
28725;DHT22;43472;48.980;9.646;2023-12-20T04:22:33;6.50;99.90
28725;DHT22;43472;48.980;9.646;2023-12-20T04:27:35;6.40;99.90
28725;DHT22;43472;48.980;9.646;2023-12-20T04:32:37;6.20;99.90
28725;DHT22;43472;48.980;9.646;2023-12-20T04:37:39;6.10;99.90
28725;DHT22;43472;48.980;9.646;2023-12-20T04:42:41;5.60;99.90
28725;DHT22;43472;48.980;9.646;2023-12-20T04:47:43;6.40;99.90
28725;DHT22;43472;48.980;9.646;2023-12-20T04:52:45;6.60;99.90
28725;DHT22;43472;48.980;9.646;2023-12-20T04:57:47;6.50;99.90
28725;DHT22;43472;48.980;9.646;2023-12-20T05:02:49;6.40;99.90
28725;DHT22;43472;48.980;9.646;2023-12-20T05:07:51;6.50;99.90
28725;DHT22;43472;48.980;9.646;2023-12-20T05:12:54;6.50;99.90
28725;DHT22;43472;48.980;9.646;2023-12-20T05:17:56;6.80;99.90
28725;DHT22;43472;48.980;9.646;2023-12-20T05:22:58;6.60;99.90
28725;DHT22;43472;48.980;9.646;2023-12-20T05:28:00;6.70;99.90
28725;DHT22;43472;48.980;9.646;2023-12-20T05:33:02;6.50;99.90
28725;DHT22;43472;48.980;9.646;2023-12-20T05:38:04;6.60;99.90
28725;DHT22;43472;48.980;9.646;2023-12-20T05:43:05;6.40;99.90
28725;DHT22;43472;48.980;9.646;2023-12-20T05:48:07;6.40;99.90
28725;DHT22;43472;48.980;9.646;2023-12-20T05:53:09;6.50;99.90
28725;DHT22;43472;48.980;9.646;2023-12-20T05:58:11;6.40;99.90
28725;DHT22;43472;48.980;9.646;2023-12-20T06:03:13;6.50;99.90
28725;DHT22;43472;48.980;9.646;2023-12-20T06:08:15;6.30;99.90
28725;DHT22;43472;48.980;9.646;2023-12-20T06:13:16;6.70;99.90
28725;DHT22;43472;48.980;9.646;2023-12-20T06:18:18;6.70;99.90
28725;DHT22;43472;48.980;9.646;2023-12-20T06:23:20;6.90;99.90
28725;DHT22;43472;48.980;9.646;2023-12-20T06:28:22;6.70;99.90
28725;DHT22;43472;48.980;9.646;2023-12-20T06:33:24;7.00;99.90
28725;DHT22;43472;48.980;9.646;2023-12-20T06:38:26;6.80;99.90
28725;DHT22;43472;48.980;9.646;2023-12-20T06:43:28;6.70;99.90
28725;DHT22;43472;48.980;9.646;2023-12-20T06:48:49;6.90;99.90
28725;DHT22;43472;48.980;9.646;2023-12-20T06:53:52;6.90;99.90
28725;DHT22;43472;48.980;9.646;2023-12-20T06:58:54;7.00;99.90
28725;DHT22;43472;48.980;9.646;2023-12-20T07:03:55;7.10;99.90
28725;DHT22;43472;48.980;9.646;2023-12-20T07:08:57;6.90;99.90
28725;DHT22;43472;48.980;9.646;2023-12-20T07:13:59;6.60;99.90
28725;DHT22;43472;48.980;9.646;2023-12-20T07:19:02;6.90;99.90
28725;DHT22;43472;48.980;9.646;2023-12-20T07:24:05;6.80;99.90
28725;DHT22;43472;48.980;9.646;2023-12-20T07:29:06;7.00;99.90
28725;DHT22;43472;48.980;9.646;2023-12-20T07:34:08;7.10;99.90
28725;DHT22;43472;48.980;9.646;2023-12-20T07:39:12;7.00;99.90
28725;DHT22;43472;48.980;9.646;2023-12-20T07:44:14;7.00;99.90
28725;DHT22;43472;48.980;9.646;2023-12-20T07:49:17;6.70;99.90
28725;DHT22;43472;48.980;9.646;2023-12-20T07:54:20;6.70;99.90
28725;DHT22;43472;48.980;9.646;2023-12-20T07:59:22;6.60;99.90
28725;DHT22;43472;48.980;9.646;2023-12-20T08:04:39;6.90;99.90
28725;DHT22;43472;48.980;9.646;2023-12-20T08:09:42;7.10;99.90
28725;DHT22;43472;48.980;9.646;2023-12-20T08:14:45;7.20;99.90
28725;DHT22;43472;48.980;9.646;2023-12-20T08:19:47;7.10;99.90
28725;DHT22;43472;48.980;9.646;2023-12-20T08:24:49;7.10;99.90
28725;DHT22;43472;48.980;9.646;2023-12-20T08:29:51;7.10;99.90
28725;DHT22;43472;48.980;9.646;2023-12-20T08:34:53;7.10;99.90
28725;DHT22;43472;48.980;9.646;2023-12-20T08:39:55;7.20;99.90
28725;DHT22;43472;48.980;9.646;2023-12-20T08:44:58;7.20;99.90
28725;DHT22;43472;48.980;9.646;2023-12-20T08:50:03;7.00;99.90
28725;DHT22;43472;48.980;9.646;2023-12-20T08:55:05;7.20;99.90
28725;DHT22;43472;48.980;9.646;2023-12-20T09:00:07;7.10;99.90
28725;DHT22;43472;48.980;9.646;2023-12-20T09:05:10;7.20;99.90
28725;DHT22;43472;48.980;9.646;2023-12-20T09:10:12;7.20;99.90
28725;DHT22;43472;48.980;9.646;2023-12-20T09:15:14;7.20;99.90
28725;DHT22;43472;48.980;9.646;2023-12-20T09:20:16;7.20;99.90
28725;DHT22;43472;48.980;9.646;2023-12-20T09:25:18;7.60;99.90
28725;DHT22;43472;48.980;9.646;2023-12-20T09:30:20;8.00;99.90
28725;DHT22;43472;48.980;9.646;2023-12-20T09:35:28;7.80;99.90
28725;DHT22;43472;48.980;9.646;2023-12-20T09:40:32;7.70;99.90
28725;DHT22;43472;48.980;9.646;2023-12-20T09:45:34;7.60;99.90
28725;DHT22;43472;48.980;9.646;2023-12-20T09:50:36;8.10;99.90
28725;DHT22;43472;48.980;9.646;2023-12-20T09:55:39;9.30;99.90
28725;DHT22;43472;48.980;9.646;2023-12-20T10:00:42;9.60;99.90
28725;DHT22;43472;48.980;9.646;2023-12-20T10:05:44;7.80;99.90
28725;DHT22;43472;48.980;9.646;2023-12-20T10:10:46;7.90;99.90
28725;DHT22;43472;48.980;9.646;2023-12-20T10:15:50;9.70;99.90
28725;DHT22;43472;48.980;9.646;2023-12-20T10:20:52;7.20;99.90
28725;DHT22;43472;48.980;9.646;2023-12-20T10:25:58;7.40;99.90
28725;DHT22;43472;48.980;9.646;2023-12-20T10:31:00;7.60;99.90
28725;DHT22;43472;48.980;9.646;2023-12-20T10:36:02;7.50;99.90
28725;DHT22;43472;48.980;9.646;2023-12-20T10:41:05;7.40;99.90
28725;DHT22;43472;48.980;9.646;2023-12-20T10:46:08;6.90;99.90
28725;DHT22;43472;48.980;9.646;2023-12-20T10:51:10;7.40;99.90
28725;DHT22;43472;48.980;9.646;2023-12-20T10:56:16;8.30;99.90
28725;DHT22;43472;48.980;9.646;2023-12-20T11:01:19;8.80;99.90
28725;DHT22;43472;48.980;9.646;2023-12-20T11:11:45;7.70;99.90
28725;DHT22;43472;48.980;9.646;2023-12-20T11:16:47;7.60;99.90
28725;DHT22;43472;48.980;9.646;2023-12-20T11:21:57;7.50;99.90
28725;DHT22;43472;48.980;9.646;2023-12-20T11:27:00;7.20;99.90
28725;DHT22;43472;48.980;9.646;2023-12-20T11:32:03;7.50;99.90
28725;DHT22;43472;48.980;9.646;2023-12-20T11:37:05;7.00;99.90
28725;DHT22;43472;48.980;9.646;2023-12-20T11:42:10;7.00;99.90
28725;DHT22;43472;48.980;9.646;2023-12-20T11:47:13;7.20;99.90
28725;DHT22;43472;48.980;9.646;2023-12-20T11:52:16;7.10;99.90
28725;DHT22;43472;48.980;9.646;2023-12-20T11:57:19;7.20;99.90
28725;DHT22;43472;48.980;9.646;2023-12-20T12:02:21;7.30;99.90
28725;DHT22;43472;48.980;9.646;2023-12-20T12:07:23;8.30;99.90
28725;DHT22;43472;48.980;9.646;2023-12-20T12:12:24;6.90;99.90
28725;DHT22;43472;48.980;9.646;2023-12-20T12:17:29;6.90;99.90
28725;DHT22;43472;48.980;9.646;2023-12-20T12:22:33;6.90;99.90
28725;DHT22;43472;48.980;9.646;2023-12-20T12:27:35;6.90;99.90
28725;DHT22;43472;48.980;9.646;2023-12-20T12:32:38;7.20;99.90
28725;DHT22;43472;48.980;9.646;2023-12-20T12:37:41;7.20;99.90
28725;DHT22;43472;48.980;9.646;2023-12-20T12:42:44;7.20;99.90
28725;DHT22;43472;48.980;9.646;2023-12-20T12:47:46;7.20;99.90
28725;DHT22;43472;48.980;9.646;2023-12-20T12:52:48;7.20;99.90
28725;DHT22;43472;48.980;9.646;2023-12-20T12:57:50;7.40;99.90
28725;DHT22;43472;48.980;9.646;2023-12-20T13:02:52;7.10;99.90
28725;DHT22;43472;48.980;9.646;2023-12-20T13:07:54;7.20;99.90
28725;DHT22;43472;48.980;9.646;2023-12-20T13:12:56;6.80;99.90
28725;DHT22;43472;48.980;9.646;2023-12-20T13:17:58;7.20;99.90
28725;DHT22;43472;48.980;9.646;2023-12-20T13:23:00;7.10;99.90
28725;DHT22;43472;48.980;9.646;2023-12-20T13:28:02;6.60;99.90
28725;DHT22;43472;48.980;9.646;2023-12-20T13:33:06;7.00;99.90
28725;DHT22;43472;48.980;9.646;2023-12-20T13:38:08;7.30;99.90
28725;DHT22;43472;48.980;9.646;2023-12-20T13:43:10;7.60;99.90
28725;DHT22;43472;48.980;9.646;2023-12-20T13:48:14;6.30;99.90
28725;DHT22;43472;48.980;9.646;2023-12-20T13:53:16;6.50;99.90
28725;DHT22;43472;48.980;9.646;2023-12-20T13:58:18;6.30;99.90
28725;DHT22;43472;48.980;9.646;2023-12-20T14:03:20;6.40;99.90
28725;DHT22;43472;48.980;9.646;2023-12-20T14:08:22;6.80;99.90
28725;DHT22;43472;48.980;9.646;2023-12-20T14:13:24;6.90;99.90
28725;DHT22;43472;48.980;9.646;2023-12-20T14:18:26;6.80;99.90
28725;DHT22;43472;48.980;9.646;2023-12-20T14:23:28;6.80;99.90
28725;DHT22;43472;48.980;9.646;2023-12-20T14:28:30;7.70;99.90
28725;DHT22;43472;48.980;9.646;2023-12-20T14:33:32;6.90;99.90
28725;DHT22;43472;48.980;9.646;2023-12-20T14:38:34;6.80;99.90
28725;DHT22;43472;48.980;9.646;2023-12-20T14:43:37;6.90;99.90
28725;DHT22;43472;48.980;9.646;2023-12-20T14:48:39;6.70;99.90
28725;DHT22;43472;48.980;9.646;2023-12-20T14:53:40;6.30;99.90
28725;DHT22;43472;48.980;9.646;2023-12-20T14:58:43;6.10;99.90
28725;DHT22;43472;48.980;9.646;2023-12-20T15:03:45;6.20;99.90
28725;DHT22;43472;48.980;9.646;2023-12-20T15:08:47;6.10;99.90
28725;DHT22;43472;48.980;9.646;2023-12-20T15:13:49;6.40;99.90
28725;DHT22;43472;48.980;9.646;2023-12-20T15:18:56;6.30;99.90
28725;DHT22;43472;48.980;9.646;2023-12-20T15:23:58;6.00;99.90
28725;DHT22;43472;48.980;9.646;2023-12-20T15:29:16;6.20;99.90
28725;DHT22;43472;48.980;9.646;2023-12-20T15:34:18;7.60;99.90
28725;DHT22;43472;48.980;9.646;2023-12-20T15:39:19;6.30;99.90
28725;DHT22;43472;48.980;9.646;2023-12-20T15:44:21;6.30;99.90
28725;DHT22;43472;48.980;9.646;2023-12-20T15:49:23;6.20;99.90
28725;DHT22;43472;48.980;9.646;2023-12-20T15:54:25;6.20;99.90
28725;DHT22;43472;48.980;9.646;2023-12-20T15:59:27;6.10;99.90
28725;DHT22;43472;48.980;9.646;2023-12-20T16:04:28;5.90;99.90
28725;DHT22;43472;48.980;9.646;2023-12-20T16:09:30;5.90;99.90
28725;DHT22;43472;48.980;9.646;2023-12-20T16:14:32;6.10;99.90
28725;DHT22;43472;48.980;9.646;2023-12-20T16:19:34;6.20;99.90
28725;DHT22;43472;48.980;9.646;2023-12-20T16:24:36;6.10;99.90
28725;DHT22;43472;48.980;9.646;2023-12-20T16:29:37;6.10;99.90
28725;DHT22;43472;48.980;9.646;2023-12-20T16:34:39;5.80;99.90
28725;DHT22;43472;48.980;9.646;2023-12-20T16:39:41;6.00;99.90
28725;DHT22;43472;48.980;9.646;2023-12-20T16:44:43;5.90;99.90
28725;DHT22;43472;48.980;9.646;2023-12-20T16:49:45;5.80;99.90
28725;DHT22;43472;48.980;9.646;2023-12-20T16:54:47;6.10;99.90
28725;DHT22;43472;48.980;9.646;2023-12-20T16:59:48;6.30;99.90
28725;DHT22;43472;48.980;9.646;2023-12-20T17:04:50;6.60;99.90
28725;DHT22;43472;48.980;9.646;2023-12-20T17:09:52;6.50;99.90
28725;DHT22;43472;48.980;9.646;2023-12-20T17:14:54;6.60;99.90
28725;DHT22;43472;48.980;9.646;2023-12-20T17:19:55;6.60;99.90
28725;DHT22;43472;48.980;9.646;2023-12-20T17:24:57;7.90;99.90
28725;DHT22;43472;48.980;9.646;2023-12-20T17:29:59;6.40;99.90
28725;DHT22;43472;48.980;9.646;2023-12-20T17:35:01;6.40;99.90
28725;DHT22;43472;48.980;9.646;2023-12-20T17:40:03;6.50;99.90
28725;DHT22;43472;48.980;9.646;2023-12-20T17:45:05;6.80;99.90
28725;DHT22;43472;48.980;9.646;2023-12-20T17:50:07;6.30;99.90
28725;DHT22;43472;48.980;9.646;2023-12-20T17:55:09;6.50;99.90
28725;DHT22;43472;48.980;9.646;2023-12-20T18:05:16;6.50;99.90
28725;DHT22;43472;48.980;9.646;2023-12-20T18:10:19;6.50;99.90
28725;DHT22;43472;48.980;9.646;2023-12-20T18:15:26;6.40;99.90
28725;DHT22;43472;48.980;9.646;2023-12-20T18:20:29;6.60;99.90
28725;DHT22;43472;48.980;9.646;2023-12-20T18:25:32;6.70;99.90
28725;DHT22;43472;48.980;9.646;2023-12-20T18:30:34;6.60;99.90
28725;DHT22;43472;48.980;9.646;2023-12-20T18:35:38;6.60;99.90
28725;DHT22;43472;48.980;9.646;2023-12-20T18:40:45;6.90;99.90
28725;DHT22;43472;48.980;9.646;2023-12-20T18:45:56;6.50;99.90
28725;DHT22;43472;48.980;9.646;2023-12-20T18:51:04;6.60;99.90
28725;DHT22;43472;48.980;9.646;2023-12-20T18:56:12;6.60;99.90
28725;DHT22;43472;48.980;9.646;2023-12-20T19:01:19;6.60;99.90
28725;DHT22;43472;48.980;9.646;2023-12-20T19:12:15;6.40;99.90
28725;DHT22;43472;48.980;9.646;2023-12-20T19:17:18;6.70;99.90
28725;DHT22;43472;48.980;9.646;2023-12-20T19:22:21;6.60;99.90
28725;DHT22;43472;48.980;9.646;2023-12-20T19:27:23;6.50;99.90
28725;DHT22;43472;48.980;9.646;2023-12-20T19:32:26;6.40;99.90
28725;DHT22;43472;48.980;9.646;2023-12-20T19:37:28;6.50;99.90
28725;DHT22;43472;48.980;9.646;2023-12-20T19:42:31;6.20;99.90
28725;DHT22;43472;48.980;9.646;2023-12-20T19:47:33;8.50;99.90
28725;DHT22;43472;48.980;9.646;2023-12-20T19:52:35;6.20;99.90
28725;DHT22;43472;48.980;9.646;2023-12-20T19:57:38;6.20;99.90
28725;DHT22;43472;48.980;9.646;2023-12-20T20:02:40;6.50;99.90
28725;DHT22;43472;48.980;9.646;2023-12-20T20:07:42;6.50;99.90
28725;DHT22;43472;48.980;9.646;2023-12-20T20:12:44;6.50;99.90
28725;DHT22;43472;48.980;9.646;2023-12-20T20:17:46;7.60;99.90
28725;DHT22;43472;48.980;9.646;2023-12-20T20:22:48;6.70;99.90
28725;DHT22;43472;48.980;9.646;2023-12-20T20:27:50;7.70;99.90
28725;DHT22;43472;48.980;9.646;2023-12-20T20:32:52;6.50;99.90
28725;DHT22;43472;48.980;9.646;2023-12-20T20:37:54;6.60;99.90
28725;DHT22;43472;48.980;9.646;2023-12-20T20:42:56;6.60;99.90
28725;DHT22;43472;48.980;9.646;2023-12-20T20:47:58;6.70;99.90
28725;DHT22;43472;48.980;9.646;2023-12-20T20:53:16;6.70;99.90
28725;DHT22;43472;48.980;9.646;2023-12-20T20:58:18;6.80;99.90
28725;DHT22;43472;48.980;9.646;2023-12-20T21:03:20;6.70;99.90
28725;DHT22;43472;48.980;9.646;2023-12-20T21:08:22;6.90;99.90
28725;DHT22;43472;48.980;9.646;2023-12-20T21:13:25;6.70;99.90
28725;DHT22;43472;48.980;9.646;2023-12-20T21:18:27;6.40;99.90
28725;DHT22;43472;48.980;9.646;2023-12-20T21:23:31;6.40;99.90
28725;DHT22;43472;48.980;9.646;2023-12-20T21:28:34;6.40;99.90
28725;DHT22;43472;48.980;9.646;2023-12-20T21:33:36;6.50;99.90
28725;DHT22;43472;48.980;9.646;2023-12-20T21:38:38;6.40;99.90
28725;DHT22;43472;48.980;9.646;2023-12-20T21:43:40;6.30;99.90
28725;DHT22;43472;48.980;9.646;2023-12-20T21:48:42;6.20;99.90
28725;DHT22;43472;48.980;9.646;2023-12-20T21:53:44;6.50;99.90
28725;DHT22;43472;48.980;9.646;2023-12-20T21:58:46;7.90;99.90
28725;DHT22;43472;48.980;9.646;2023-12-20T22:03:49;6.50;99.90
28725;DHT22;43472;48.980;9.646;2023-12-20T22:08:51;6.30;99.90
28725;DHT22;43472;48.980;9.646;2023-12-20T22:13:53;6.50;99.90
28725;DHT22;43472;48.980;9.646;2023-12-20T22:19:00;6.40;99.90
28725;DHT22;43472;48.980;9.646;2023-12-20T22:24:03;6.40;99.90
28725;DHT22;43472;48.980;9.646;2023-12-20T22:29:05;6.40;99.90
28725;DHT22;43472;48.980;9.646;2023-12-20T22:34:06;6.50;99.90
28725;DHT22;43472;48.980;9.646;2023-12-20T22:39:08;6.80;99.90
28725;DHT22;43472;48.980;9.646;2023-12-20T22:44:11;6.80;99.90
28725;DHT22;43472;48.980;9.646;2023-12-20T22:49:12;6.70;99.90
28725;DHT22;43472;48.980;9.646;2023-12-20T22:54:15;6.40;99.90
28725;DHT22;43472;48.980;9.646;2023-12-20T22:59:16;6.70;99.90
28725;DHT22;43472;48.980;9.646;2023-12-20T23:04:18;6.60;99.90
28725;DHT22;43472;48.980;9.646;2023-12-20T23:09:20;6.70;99.90
28725;DHT22;43472;48.980;9.646;2023-12-20T23:14:22;6.50;99.90
28725;DHT22;43472;48.980;9.646;2023-12-20T23:19:24;6.40;99.90
28725;DHT22;43472;48.980;9.646;2023-12-20T23:24:25;6.50;99.90
28725;DHT22;43472;48.980;9.646;2023-12-20T23:29:27;6.50;99.90
28725;DHT22;43472;48.980;9.646;2023-12-20T23:34:29;6.60;99.90
28725;DHT22;43472;48.980;9.646;2023-12-20T23:39:31;6.80;99.90
28725;DHT22;43472;48.980;9.646;2023-12-20T23:44:33;6.70;99.90
28725;DHT22;43472;48.980;9.646;2023-12-20T23:49:35;6.50;99.90
28725;DHT22;43472;48.980;9.646;2023-12-20T23:54:37;6.60;99.90
28725;DHT22;43472;48.980;9.646;2023-12-20T23:59:39;6.80;99.90
